Flight Track Log - Related Links

Times and Time Zones

All times are in EDT time to prevent confusion due to time zone crossing. See the VH-CBT flight status page for this flight to view local times or setup timezone preferences in your user account.

Time Position Orientation Groundspeed Altitude Reporting Facility
EDT Latitude Longitude Course Direction KTS MPH feet Rate Location/Type
Sun 06:20:47 AM -27.5703 153.0160 111° Southeast 7,300  Level Aus ATC (Calculated)
Sun 06:21:21 AM -27.5815 153.0497 325° Northwest 117 135 1,200 -4,703 Descending Aus ATC (RADAR)
Sun 06:22:01 AM -27.5660 153.0374 325° Northwest 117 135 1,500 240 Climbing Aus ATC (RADAR)
Sun 06:22:36 AM -27.5775 153.0138 241° Southwest 151 174 1,500 171 Level Aus ATC (RADAR)
Sun 06:23:11 AM -27.5999 153.0347 140° Southeast 167 192 1,700 462 Climbing Aus ATC (RADAR)
Sun 06:23:41 AM -27.6073 153.0573 110° East 153 176 2,000 462 Climbing Aus ATC (RADAR)
Sun 06:24:16 AM -27.6163 153.0838 111° Southeast 153 176 2,200 277 Climbing Aus ATC (RADAR)
Sun 06:24:46 AM -27.6239 153.1063 111° Southeast 152 175 2,300 353 Climbing Aus ATC (RADAR)
Sun 06:25:41 AM -27.6378 153.1496 110° East 160 184 2,700 600 Climbing Aus ATC (RADAR)
Sun 06:26:06 AM -27.6431 153.1689 107° East 155 178 3,100 873 Climbing Aus ATC (RADAR)
Sun 06:26:36 AM -27.6327 153.1864 56° Northeast 139 160 3,500 880 Climbing Aus ATC (RADAR)
Sun 06:27:21 AM -27.6119 153.2052 39° Northeast 131 151 4,200 880 Climbing Aus ATC (RADAR)
Sun 06:27:51 AM -27.5951 153.2053 360° North 124 143 4,600 831 Climbing Aus ATC (RADAR)
Sun 06:28:26 AM -27.5763 153.2001 346° North 120 138 5,100 831 Climbing Aus ATC (RADAR)
Sun 06:28:56 AM -27.5599 153.1947 344° North 121 139 5,500 831 Climbing Aus ATC (RADAR)
Sun 06:29:31 AM -27.5405 153.1887 345° North 122 140 6,000 988 Climbing Aus ATC (RADAR)
Sun 06:30:21 AM -27.5123 153.1813 347° North 122 140 6,900 1,050 Climbing Aus ATC (RADAR)
Sun 06:30:51 AM -27.4957 153.1758 344° North 123 142 7,400 1,000 Climbing Aus ATC (RADAR)
Sun 06:31:15 AM -27.4826 153.1721 346° North 116 133 7,800 938 Climbing Aus ATC (RADAR)
Sun 06:31:55 AM -27.4622 153.1657 344° North 112 129 8,400 857 Climbing Aus ATC (RADAR)
Sun 06:32:25 AM -27.4470 153.1604 343° North 113 130 8,800 923 Climbing Aus ATC (RADAR)
Sun 06:33:00 AM -27.4291 153.1552 345° North 112 129 9,400 943 Climbing Aus ATC (RADAR)
Sun 06:33:35 AM -27.4113 153.1505 347° North 111 128 9,900 800 Climbing Aus ATC (RADAR)
Sun 06:34:15 AM -27.3909 153.1450 347° North 111 128 10,400 720 Climbing Aus ATC (RADAR)
Sun 06:34:50 AM -27.3730 153.1401 346° North 112 129 10,800 780 Climbing Aus ATC (RADAR)
Sun 06:35:55 AM -27.3367 153.1390 359° North 123 142 11,700 867 Climbing Aus ATC (RADAR)
Sun 06:36:20 AM -27.3222 153.1382 357° North 124 143 12,100 900 Climbing Aus ATC (RADAR)
Sun 06:36:55 AM -27.3014 153.1366 356° North 128 147 12,600 880 Climbing Aus ATC (RADAR)
Sun 06:37:35 AM -27.2774 153.1349 356° North 129 148 13,200 960 Climbing Aus ATC (RADAR)
Sun 06:38:10 AM -27.2566 153.1335 357° North 127 146 13,800 771 Climbing Aus ATC (RADAR)
Sun 06:38:45 AM -27.2348 153.1317 356° North 135 155 14,100 185 Climbing Aus ATC (RADAR)
Sun 06:39:15 AM -27.2118 153.1295 355° North 161 185 14,000 -100 Descending Aus ATC (RADAR)
Sun 06:39:45 AM -27.1879 153.1280 357° North 170 196 14,000 -160 Level Aus ATC (RADAR)
Sun 06:40:30 AM -27.1512 153.1257 357° North 178 205 13,800 -150 Descending Aus ATC (RADAR)
Sun 06:41:05 AM -27.1228 153.1236 356° North 176 203 13,800  Level Aus ATC (RADAR)
Sun 06:41:30 AM -27.1028 153.1224 357° North 174 200 13,800  Level Aus ATC (RADAR)
Sun 06:42:05 AM -27.0745 153.1206 357° North 174 200 13,800  Level Aus ATC (RADAR)
Sun 06:42:49 AM -27.0383 153.1173 355° North 173 199 13,800  Level Aus ATC (RADAR)
Sun 06:43:24 AM -27.0132 153.1063 339° North 165 190 13,800  Level Aus ATC (RADAR)
Sun 06:44:04 AM -26.9847 153.0939 339° North 162 186 13,800  Level Aus ATC (RADAR)
Sun 06:44:29 AM -26.9663 153.0863 340° North 166 191 13,800  Level Aus ATC (RADAR)
Sun 06:45:04 AM -26.9403 153.0768 342° North 167 192 13,800  Level Aus ATC (RADAR)
Sun 06:46:04 AM -26.8971 153.0607 342° North 160 184 13,800 71 Level Aus ATC (RADAR)
Sun 06:46:29 AM -26.8791 153.0538 341° North 162 186 13,900 100 Climbing Aus ATC (RADAR)
Sun 06:47:04 AM -26.8536 153.0442 341° North 165 190 13,900  Level Aus ATC (RADAR)
Sun 06:47:44 AM -26.8242 153.0325 341° North 165 190 13,900  Level Aus ATC (RADAR)
Sun 06:48:09 AM -26.8057 153.0256 341° North 167 192 13,900  Level Aus ATC (RADAR)
Sun 06:48:39 AM -26.7837 153.0171 341° North 168 193 13,900 -86 Level Aus ATC (RADAR)
Sun 06:49:19 AM -26.7546 153.0058 341° North 166 191 13,800 -92 Descending Aus ATC (RADAR)
Sun 06:49:44 AM -26.7363 152.9994 343° North 165 190 13,800  Level Aus ATC (RADAR)
Sun 06:50:19 AM -26.7109 152.9895 341° North 165 190 13,800  Level Aus ATC (RADAR)
Sun 06:50:58 AM -26.6813 152.9783 341° North 167 192 13,800  Level Aus ATC (RADAR)
Sun 06:51:23 AM -26.6628 152.9715 342° North 167 192 13,800  Level Aus ATC (RADAR)
Sun 06:51:58 AM -26.6370 152.9618 342° North 167 192 13,800  Level Aus ATC (RADAR)
Sun 06:52:38 AM -26.6073 152.9507 341° North 168 193 13,800  Level Aus ATC (RADAR)
Sun 06:52:58 AM -26.5924 152.9448 341° North 168 193 13,800  Level Aus ATC (RADAR)
Sun 06:53:33 AM -26.5662 152.9350 341° North 169 194 13,800  Level Aus ATC (RADAR)
Sun 06:54:13 AM -26.5364 152.9235 341° North 168 193 13,800  Level Aus ATC (RADAR)
Sun 06:54:38 AM -26.5175 152.9164 341° North 170 196 13,800 200 Level Aus ATC (RADAR)
Sun 06:55:13 AM -26.4907 152.9063 341° North 173 199 14,000 67 Climbing Aus ATC (RADAR)
Sun 06:56:08 AM -26.4487 152.8910 342° North 173 199 13,900 -150 Descending Aus ATC (RADAR)
Sun 06:56:33 AM -26.4299 152.8837 341° North 172 198 13,800  Descending Aus ATC (RADAR)
Sun 06:57:03 AM -26.4071 152.8754 342° North 171 197 13,900 80 Climbing Aus ATC (RADAR)
Sun 06:57:48 AM -26.3739 152.8632 342° North 167 192 13,900  Level Aus ATC (RADAR)
Sun 06:58:08 AM -26.3588 152.8576 341° North 169 194 13,900 -109 Level Aus ATC (RADAR)
Sun 06:58:43 AM -26.3323 152.8479 342° North 170 196 13,800  Descending Aus ATC (RADAR)
Sun 06:59:23 AM -26.3024 152.8367 341° North 169 194 13,900 92 Climbing Aus ATC (RADAR)
Sun 06:59:48 AM -26.2840 152.8294 340° North 168 193 13,900  Level Aus ATC (RADAR)
Sun 07:00:23 AM -26.2575 152.8197 342° North 170 196 13,900 81 Level Aus ATC (RADAR)
Sun 07:01:02 AM -26.2272 152.8081 341° North 172 198 14,000 -94 Climbing Aus ATC (RADAR)
Sun 07:01:27 AM -26.2081 152.8007 341° North 173 199 13,800 -100 Descending Aus ATC (RADAR)
Sun 07:02:02 AM -26.1815 152.7907 341° North 173 199 13,900 160 Climbing Aus ATC (RADAR)
Sun 07:02:42 AM -26.1508 152.7795 342° North 173 199 14,000 86 Climbing Aus ATC (RADAR)
Sun 07:03:12 AM -26.1279 152.7700 340° North 173 199 14,000 -92 Level Aus ATC (RADAR)
Sun 07:03:47 AM -26.1012 152.7604 342° North 171 197 13,900 -80 Descending Aus ATC (RADAR)
Sun 07:04:27 AM -26.0709 152.7501 343° North 170 196 13,900  Level Aus ATC (RADAR)
Sun 07:05:02 AM -26.0439 152.7384 339° North 174 200 13,900  Level Aus ATC (RADAR)
Sun 07:05:37 AM -26.0167 152.7295 344° North 172 198 13,900  Level Aus ATC (RADAR)
Sun 07:06:12 AM -25.9895 152.7184 340° North 176 203 13,900 -86 Level Aus ATC (RADAR)
Sun 07:06:47 AM -25.9618 152.7086 342° North 174 200 13,800 -92 Descending Aus ATC (RADAR)
Sun 07:07:17 AM -25.9384 152.6995 341° North 177 204 13,800 86 Level Aus ATC (RADAR)
Sun 07:07:57 AM -25.9072 152.6876 341° North 177 204 13,900 80 Climbing Aus ATC (RADAR)
Sun 07:08:32 AM -25.8799 152.6773 341° North 176 203 13,900  Level Aus ATC (RADAR)
Sun 07:09:07 AM -25.8525 152.6673 342° North 176 203 13,900 86 Level Aus ATC (RADAR)
Sun 07:09:42 AM -25.8248 152.6572 342° North 180 207 14,000 -86 Climbing Aus ATC (RADAR)
Sun 07:10:17 AM -25.7976 152.6476 342° North 176 203 13,800 -71 Descending Aus ATC (RADAR)
Sun 07:11:07 AM -25.7589 152.6332 341° North 174 200 13,900 80 Climbing Aus ATC (RADAR)
Sun 07:11:32 AM -25.7394 152.6260 342° North 175 201 13,900  Level Aus ATC (RADAR)
Sun 07:11:51 AM -25.7237 152.6214 345° North 176 203 13,900 -111 Level Aus ATC (RADAR)
Sun 07:12:26 AM -25.6963 152.6109 341° North 178 205 13,800  Descending Aus ATC (RADAR)
Sun 07:13:07 AM -25.6649 152.5989 341° North 179 206 13,900 92 Climbing Aus ATC (RADAR)
Sun 07:13:31 AM -25.6435 152.5951 351° North 179 206 13,900  Level Aus ATC (RADAR)
Sun 07:14:06 AM -25.6151 152.5888 349° North 177 204 13,900 86 Level Aus ATC (RADAR)
Sun 07:14:41 AM -25.5869 152.5820 348° North 177 204 14,000 -200 Climbing Aus ATC (RADAR)
Sun 07:15:06 AM -25.5665 152.5766 347° North 179 206 13,700 -1,100 Descending Aus ATC (RADAR)
Sun 07:15:41 AM -25.5337 152.5681 347° North 207 238 12,900 -1,200 Descending Aus ATC (RADAR)
Sun 07:16:21 AM -25.4948 152.5590 348° North 213 245 12,200 -1,200 Descending Aus ATC (RADAR)
Sun 07:16:46 AM -25.4698 152.5531 348° North 218 251 11,600 -1,200 Descending Aus ATC (RADAR)
Sun 07:17:21 AM -25.4353 152.5447 348° North 218 251 11,000 -960 Descending Aus ATC (RADAR)
Sun 07:18:01 AM -25.3971 152.5356 348° North 210 242 10,400 -1,280 Descending Aus ATC (RADAR)
Sun 07:18:36 AM -25.3631 152.5277 348° North 216 249 9,400 -1,846 Descending Aus ATC (RADAR)
Sun 07:19:06 AM -25.3329 152.5207 348° North 222 255 8,400 -1,800 Descending Aus ATC (RADAR)
Sun 07:19:46 AM -25.2934 152.5126 349° North 218 251 7,300 -1,600 Descending Aus ATC (RADAR)
Sun 07:20:21 AM -25.2598 152.5050 348° North 214 246 6,400 -1,624 Descending Aus ATC (RADAR)
Sun 07:21:11 AM -25.2127 152.4956 350° North 206 237 5,000 -1,629 Descending Aus ATC (RADAR)
Sun 07:21:31 AM -25.1966 152.4890 339° North 200 230 4,500 -1,440 Descending Aus ATC (RADAR)
Sun 07:21:36 AM -25.1922 152.4876 344° North 200 230 4,400 -1,200 Descending Aus ATC (RADAR)
Sun 07:24:41 AM -25.1201 152.4453 332° Northwest 100 -1,395 Descending Aus ATC (Calculated)
Sun 07:26:00 AM -25.0737 152.4181 332° Northwest  Level FlightAware Approximate
Sun 07:27:00 AM -25.0385 152.3974 332° Northwest  Level FlightAware Approximate
Sun 07:28:00 AM -25.0032 152.3768 332° Northwest  Level FlightAware Approximate
Sun 07:29:00 AM -24.9679 152.3562 332° Northwest  Level FlightAware Approximate
Sun 07:30:00 AM -24.9327 152.3356 332° Northwest  Level FlightAware Approximate
Sun 07:31:00 AM -24.9039 152.3186 332° Northwest  Level Estimated

Login

Don't have an account? Register now (free) for customized features, flight alerts, and more!